Time;durP1;ratioP1;P1;durP2;ratioP2;P2;SDS_P1;SDS_P2;PMS_P1;PMS_P2;Temp;Humidity;BMP_temperature;BMP_pressure;BME280_temperature;BME280_humidity;BME280_pressure;Samples;Min_cycle;Max_cycle;Signal;HPM_P1;HPM_P2
2023/07/15 00:00:04;;;;;;;3.55;2.10;;;;;;;22.36;99.61;99838.28;689100;28;1556;-63
2023/07/15 00:00:32;;;;;;;3.22;2.00;;;;;;;22.28;100.00;99841.41;690325;28;4976;-63
2023/07/15 00:00:54;;;;;;;4.10;2.00;;;;;;;22.24;99.93;99841.72;688791;28;1556;-63
2023/07/15 00:01:23;;;;;;;3.70;2.00;;;;;;;22.20;100.00;99837.56;690440;28;1162;-63
2023/07/15 00:01:43;;;;;;;3.67;2.20;;;;;;;22.19;99.56;99835.84;688995;28;1636;-63
2023/07/15 00:02:04;;;;;;;4.10;2.20;;;;;;;22.19;99.70;99835.84;689834;28;877;-63
2023/07/15 00:02:24;;;;;;;3.47;2.00;;;;;;;22.21;99.20;99839.25;690469;28;928;-63
2023/07/15 00:02:45;;;;;;;3.58;2.00;;;;;;;22.39;97.97;99842.56;688288;28;1453;-63
2023/07/15 00:03:08;;;;;;;4.57;2.20;;;;;;;22.42;97.40;99835.19;687250;28;1434;-63
2023/07/15 00:03:28;;;;;;;3.40;2.00;;;;;;;22.42;97.83;99842.34;686863;28;4871;-63
2023/07/15 00:03:50;;;;;;;3.90;2.10;;;;;;;22.38;97.95;99836.34;688737;28;993;-63
2023/07/15 00:04:13;;;;;;;4.53;2.10;;;;;;;22.41;98.06;99838.81;689104;28;952;-63
2023/07/15 00:04:34;;;;;;;3.30;2.00;;;;;;;22.47;97.19;99840.19;690711;28;915;-62
2023/07/15 00:04:54;;;;;;;3.47;2.00;;;;;;;22.44;98.27;99835.97;689497;28;1440;-63
2023/07/15 00:05:18;;;;;;;3.67;2.00;;;;;;;22.39;97.68;99831.91;689829;28;884;-63
2023/07/15 00:05:39;;;;;;;4.22;2.10;;;;;;;22.39;97.81;99838.06;689753;28;897;-63
2023/07/15 00:05:59;;;;;;;4.13;2.05;;;;;;;22.42;98.90;99837.00;689561;28;1559;-63
2023/07/15 00:06:21;;;;;;;3.63;2.00;;;;;;;22.37;99.61;99834.63;690080;28;4615;-63
2023/07/15 00:06:41;;;;;;;3.38;2.10;;;;;;;22.34;100.00;99836.66;690510;28;1405;-63
2023/07/15 00:07:05;;;;;;;4.17;2.10;;;;;;;22.31;100.00;99834.19;689074;28;1505;-63
2023/07/15 00:07:25;;;;;;;4.40;2.22;;;;;;;22.24;99.94;99833.75;689668;28;921;-63
2023/07/15 00:07:47;;;;;;;3.93;2.20;;;;;;;22.20;99.88;99827.75;689667;28;920;-63
2023/07/15 00:08:08;;;;;;;3.60;2.10;;;;;;;22.23;98.96;99832.03;690121;28;1126;-64
2023/07/15 00:08:31;;;;;;;3.80;2.10;;;;;;;22.21;98.95;99833.91;690363;28;875;-63
2023/07/15 00:08:52;;;;;;;3.13;2.03;;;;;;;22.23;98.47;99829.38;688991;28;1585;-63
2023/07/15 00:09:15;;;;;;;4.30;2.20;;;;;;;22.26;98.82;99831.81;692595;28;4367;-63
2023/07/15 00:09:36;;;;;;;3.92;1.80;;;;;;;22.20;100.00;99826.91;692815;28;1267;-63
2023/07/15 00:09:57;;;;;;;2.95;1.88;;;;;;;22.16;100.00;99842.22;691703;28;1637;-64
2023/07/15 00:10:17;;;;;;;3.05;2.00;;;;;;;22.14;100.00;99837.94;693487;28;932;-63
2023/07/15 00:10:41;;;;;;;3.00;1.88;;;;;;;22.08;100.00;99834.75;692571;28;861;-63
2023/07/15 00:11:03;;;;;;;3.08;2.20;;;;;;;22.06;100.00;99836.66;689410;28;1448;-63
2023/07/15 00:11:25;;;;;;;3.88;2.05;;;;;;;22.05;99.63;99828.78;690028;28;1269;-63
2023/07/15 00:11:46;;;;;;;3.70;1.90;;;;;;;22.06;99.43;99835.81;688731;28;1503;-63
2023/07/15 00:12:09;;;;;;;3.75;2.00;;;;;;;22.06;99.96;99830.50;690345;28;4521;-62
2023/07/15 00:12:29;;;;;;;3.33;2.05;;;;;;;22.11;100.00;99833.69;690173;28;853;-64
2023/07/15 00:12:50;;;;;;;4.03;1.93;;;;;;;22.07;100.00;99835.72;689702;28;1467;-63
2023/07/15 00:13:12;;;;;;;4.27;2.00;;;;;;;22.04;100.00;99827.94;690783;28;1025;-63
2023/07/15 00:13:32;;;;;;;3.47;2.25;;;;;;;22.04;99.17;99833.25;689623;28;1417;-63
2023/07/15 00:13:53;;;;;;;3.17;2.10;;;;;;;22.02;99.55;99829.84;689756;28;1488;-63
2023/07/15 00:14:17;;;;;;;3.50;1.93;;;;;;;22.01;99.75;99836.09;690860;28;1253;-63
2023/07/15 00:14:39;;;;;;;3.55;2.00;;;;;;;22.00;100.00;99825.56;689512;28;1630;-63
2023/07/15 00:14:59;;;;;;;3.85;1.92;;;;;;;21.98;99.38;99832.81;688991;28;1699;-63
2023/07/15 00:15:20;;;;;;;3.70;1.90;;;;;;;21.98;100.00;99828.31;690200;28;4333;-63
2023/07/15 00:15:47;;;;;;;3.17;2.08;;;;;;;21.97;100.00;99831.94;689548;28;1546;-63
2023/07/15 00:16:08;;;;;;;3.60;2.17;;;;;;;21.95;100.00;99836.50;692610;28;1039;-63
2023/07/15 00:16:30;;;;;;;3.45;2.22;;;;;;;21.95;100.00;99831.19;693004;28;1270;-63
2023/07/15 00:16:51;;;;;;;3.13;1.98;;;;;;;21.96;100.00;99834.69;690503;28;1503;-63
2023/07/15 00:17:11;;;;;;;3.20;2.00;;;;;;;21.93;100.00;99833.09;693394;28;1007;-63
2023/07/15 00:17:32;;;;;;;3.20;1.90;;;;;;;21.91;100.00;99835.00;692551;28;1913;-63
2023/07/15 00:17:52;;;;;;;3.53;2.03;;;;;;;21.87;100.00;99831.69;690756;28;1551;-63
2023/07/15 00:18:14;;;;;;;3.65;1.90;;;;;;;21.89;100.00;99832.44;690124;28;4591;-62
2023/07/15 00:18:34;;;;;;;4.22;2.00;;;;;;;21.91;100.00;99837.66;690765;28;808;-63
2023/07/15 00:18:55;;;;;;;3.40;2.00;;;;;;;21.89;100.00;99836.91;689038;28;1570;-63
2023/07/15 00:19:19;;;;;;;3.88;2.00;;;;;;;21.89;100.00;99827.13;690504;28;892;-63
2023/07/15 00:19:39;;;;;;;3.47;1.95;;;;;;;21.93;100.00;99833.09;690388;28;1005;-63
2023/07/15 00:20:00;;;;;;;4.43;2.00;;;;;;;21.93;100.00;99830.44;688905;28;1570;-63
2023/07/15 00:20:21;;;;;;;4.72;2.05;;;;;;;21.91;100.00;99838.50;689847;28;983;-64
2023/07/15 00:20:42;;;;;;;4.53;2.13;;;;;;;21.91;100.00;99832.34;690712;28;1413;-63
2023/07/15 00:21:20;;;;;;;4.15;2.05;;;;;;;21.96;100.00;99830.25;690901;28;1464;-63
2023/07/15 00:21:40;;;;;;;5.25;2.10;;;;;;;22.03;100.00;99836.00;689094;28;5136;-63
2023/07/15 00:22:00;;;;;;;4.78;2.03;;;;;;;22.00;100.00;99830.88;688664;28;1527;-64
2023/07/15 00:22:21;;;;;;;3.63;2.03;;;;;;;21.99;100.00;99835.38;690521;28;932;-63
2023/07/15 00:22:43;;;;;;;3.88;2.00;;;;;;;21.92;100.00;99828.75;690583;28;927;-64
2023/07/15 00:23:23;;;;;;;3.47;1.90;;;;;;;21.89;100.00;99834.25;689104;28;1545;-63
2023/07/15 00:23:44;;;;;;;3.95;2.00;;;;;;;21.83;100.00;99834.66;690048;28;924;-63
2023/07/15 00:24:05;;;;;;;3.95;2.20;;;;;;;21.82;100.00;99836.47;690734;28;785;-64
2023/07/15 00:24:25;;;;;;;3.80;2.10;;;;;;;21.84;100.00;99831.06;689483;28;4318;-63
2023/07/15 00:24:46;;;;;;;3.15;1.95;;;;;;;21.86;100.00;99834.44;689258;28;1447;-63
2023/07/15 00:25:11;;;;;;;2.95;1.90;;;;;;;21.86;100.00;99834.44;690231;28;868;-63
2023/07/15 00:25:34;;;;;;;3.38;1.80;;;;;;;21.83;100.00;99829.34;690750;28;813;-63
2023/07/15 00:25:54;;;;;;;4.40;2.00;;;;;;;21.77;100.00;99826.09;689001;28;1408;-63
2023/07/15 00:26:15;;;;;;;3.40;2.30;;;;;;;21.76;100.00;99826.22;690187;28;1028;-63
2023/07/15 00:26:36;;;;;;;4.13;2.05;;;;;;;21.75;100.00;99829.81;687962;28;1576;-63
2023/07/15 00:26:58;;;;;;;4.47;2.30;;;;;;;21.75;100.00;99836.00;687071;28;1907;-63
2023/07/15 00:27:24;;;;;;;4.50;2.20;;;;;;;21.73;100.00;99835.25;686974;28;4337;-63
2023/07/15 00:27:46;;;;;;;4.10;1.83;;;;;;;21.72;100.00;99830.91;688250;28;1807;-64
2023/07/15 00:28:07;;;;;;;3.78;2.10;;;;;;;21.70;100.00;99831.94;690869;28;1026;-64
2023/07/15 00:28:27;;;;;;;3.92;2.28;;;;;;;21.70;100.00;99831.94;691663;28;1184;-63
2023/07/15 00:28:50;;;;;;;3.17;2.07;;;;;;;21.70;100.00;99830.13;689618;28;2038;-63
2023/07/15 00:29:10;;;;;;;3.58;2.17;;;;;;;21.68;100.00;99825.84;692484;28;883;-63
2023/07/15 00:29:31;;;;;;;3.83;1.90;;;;;;;21.67;100.00;99834.78;690392;28;1046;-63
2023/07/15 00:29:51;;;;;;;3.60;1.85;;;;;;;21.66;100.00;99825.13;686702;28;1572;-63
2023/07/15 00:30:14;;;;;;;3.70;2.00;;;;;;;21.64;100.00;99830.53;686850;28;4618;-63
2023/07/15 00:30:34;;;;;;;4.15;2.20;;;;;;;21.64;100.00;99833.19;686108;28;1023;-63
2023/07/15 00:30:55;;;;;;;4.55;2.17;;;;;;;21.64;100.00;99830.53;689653;28;1460;-64
2023/07/15 00:31:20;;;;;;;3.60;2.10;;;;;;;21.64;100.00;99827.00;690543;28;1103;-63
2023/07/15 00:31:42;;;;;;;4.35;2.10;;;;;;;21.63;100.00;99827.94;684262;28;3528;-63
2023/07/15 00:32:04;;;;;;;3.05;1.92;;;;;;;21.63;100.00;99828.81;684691;28;1446;-63
2023/07/15 00:32:25;;;;;;;2.88;1.70;;;;;;;21.64;100.00;99830.53;685041;28;987;-63
2023/07/15 00:32:47;;;;;;;3.60;1.90;;;;;;;21.62;100.00;99827.09;683876;28;1466;-63
2023/07/15 00:33:14;;;;;;;3.35;1.80;;;;;;;21.63;100.00;99833.25;683703;28;4424;-63
2023/07/15 00:33:35;;;;;;;3.95;2.08;;;;;;;21.61;100.00;99830.72;684467;28;920;-63
2023/07/15 00:33:55;;;;;;;3.78;2.00;;;;;;;21.59;100.00;99832.63;686833;28;1617;-63
2023/07/15 00:34:15;;;;;;;3.17;1.80;;;;;;;21.57;100.00;99830.06;688089;28;1393;-65
2023/07/15 00:34:36;;;;;;;3.35;2.05;;;;;;;21.59;100.00;99830.81;687604;28;1161;-63
2023/07/15 00:34:56;;;;;;;3.90;2.23;;;;;;;21.55;100.00;99825.78;689193;28;1468;-64
2023/07/15 00:35:25;;;;;;;3.67;2.10;;;;;;;21.51;100.00;99822.44;690723;28;6061;-63
2023/07/15 00:35:47;;;;;;;3.95;2.10;;;;;;;21.54;100.00;99829.41;687243;28;1673;-63
2023/07/15 00:36:09;;;;;;;3.90;2.22;;;;;;;21.52;100.00;99834.81;690038;28;4594;-62
2023/07/15 00:36:33;;;;;;;4.22;2.20;;;;;;;21.51;100.00;99826.91;687691;28;2072;-63
2023/07/15 00:36:53;;;;;;;5.10;2.00;;;;;;;21.49;100.00;99828.81;686671;28;1437;-64
2023/07/15 00:37:14;;;;;;;3.27;2.00;;;;;;;21.46;100.00;99826.34;685144;28;1112;-63
2023/07/15 00:37:36;;;;;;;3.30;2.00;;;;;;;21.43;100.00;99836.25;684911;28;2013;-63
2023/07/15 00:38:00;;;;;;;3.40;1.90;;;;;;;21.40;100.00;99831.09;684220;28;1580;-63
2023/07/15 00:38:20;;;;;;;3.33;1.95;;;;;;;21.38;100.00;99827.69;686228;28;1443;-63
2023/07/15 00:38:42;;;;;;;3.88;2.13;;;;;;;21.36;100.00;99826.91;687804;28;1189;-63
2023/07/15 00:39:04;;;;;;;4.13;1.90;;;;;;;21.43;100.00;99832.69;687070;28;1543;-63
2023/07/15 00:39:25;;;;;;;3.72;1.98;;;;;;;21.49;100.00;99826.13;689851;28;4518;-63
2023/07/15 00:39:45;;;;;;;3.57;1.97;;;;;;;21.57;100.00;99823.88;686554;28;1520;-63
2023/07/15 00:40:08;;;;;;;3.77;1.97;;;;;;;21.64;100.00;99825.22;687274;28;952;-63
2023/07/15 00:40:36;;;;;;;4.00;2.10;;;;;;;21.59;100.00;99822.00;683029;28;964;-63
2023/07/15 00:40:57;;;;;;;3.50;2.00;;;;;;;21.57;100.00;99824.75;681909;28;1590;-64
2023/07/15 00:41:18;;;;;;;3.40;1.90;;;;;;;21.50;100.00;99823.41;682388;28;1438;-63
2023/07/15 00:41:39;;;;;;;3.67;2.00;;;;;;;21.44;100.00;99829.09;684191;28;1605;-63
2023/07/15 00:42:11;;;;;;;4.72;2.22;;;;;;;21.37;100.00;99828.63;684167;28;1434;-63
2023/07/15 00:42:50;;;;;;;3.88;2.00;;;;;;;21.35;100.00;99827.00;685581;28;4975;-62
2023/07/15 00:43:48;;;;;;;4.57;2.08;;;;;;;21.33;100.00;99827.13;686022;28;1338;-63
2023/07/15 00:44:14;;;;;;;3.72;2.10;;;;;;;21.32;100.00;99830.72;686915;28;1264;-64
2023/07/15 00:44:34;;;;;;;4.32;2.17;;;;;;;21.32;100.00;99830.72;690085;28;1150;-63
2023/07/15 00:44:54;;;;;;;3.35;2.10;;;;;;;21.31;100.00;99821.06;689295;28;1565;-63
2023/07/15 00:45:15;;;;;;;3.83;1.83;;;;;;;21.30;100.00;99826.47;689863;28;4348;-63
2023/07/15 00:45:35;;;;;;;4.43;1.83;;;;;;;21.28;100.00;99829.22;689366;28;786;-64
2023/07/15 00:46:17;;;;;;;3.20;1.90;;;;;;;21.26;100.00;99831.97;689445;28;1457;-64
2023/07/15 00:46:57;;;;;;;4.10;2.30;;;;;;;21.27;100.00;99836.34;689886;28;1444;-64
2023/07/15 00:47:45;;;;;;;4.15;2.10;;;;;;;21.27;100.00;99830.19;688052;28;3293;-64
2023/07/15 00:48:15;;;;;;;3.28;2.03;;;;;;;21.29;100.00;99832.72;689632;28;1388;-64
2023/07/15 00:48:41;;;;;;;4.90;2.10;;;;;;;21.28;100.00;99834.53;689326;28;5995;-63
2023/07/15 00:49:13;;;;;;;3.28;1.95;;;;;;;21.32;100.00;99838.69;688568;28;1618;-64
2023/07/15 00:49:35;;;;;;;3.47;2.30;;;;;;;21.33;100.00;99831.59;689020;28;2183;-63
2023/07/15 00:49:55;;;;;;;4.90;2.20;;;;;;;21.34;100.00;99833.31;687869;28;1558;-64
2023/07/15 00:50:16;;;;;;;4.40;2.10;;;;;;;21.41;100.00;99823.97;686667;28;950;-63
2023/07/15 00:50:42;;;;;;;4.50;2.00;;;;;;;21.43;100.00;99828.25;686087;28;1705;-63
2023/07/15 00:51:03;;;;;;;4.57;1.95;;;;;;;21.42;100.00;99831.03;683082;28;1455;-63
2023/07/15 00:51:29;;;;;;;4.90;2.15;;;;;;;21.37;100.00;99825.97;681960;28;4323;-63
2023/07/15 00:51:55;;;;;;;4.32;2.08;;;;;;;21.33;100.00;99827.13;683038;28;1610;-64
2023/07/15 00:52:20;;;;;;;3.20;2.00;;;;;;;21.33;100.00;99829.78;685549;28;972;-64
2023/07/15 00:52:41;;;;;;;3.60;2.00;;;;;;;21.31;100.00;99834.34;682303;28;900;-64
2023/07/15 00:53:01;;;;;;;3.43;2.07;;;;;;;21.29;100.00;99828.25;683715;28;1545;-64
2023/07/15 00:53:21;;;;;;;3.50;2.00;;;;;;;21.24;100.00;99833.88;685936;28;992;-64
2023/07/15 00:53:43;;;;;;;3.80;2.30;;;;;;;21.24;100.00;99838.34;689126;28;960;-64
2023/07/15 00:54:04;;;;;;;4.80;2.10;;;;;;;21.20;100.00;99831.50;686528;28;1497;-64
2023/07/15 00:54:26;;;;;;;4.45;2.20;;;;;;;21.20;100.00;99836.84;687786;28;4498;-64
2023/07/15 00:54:50;;;;;;;3.47;2.03;;;;;;;21.17;100.00;99835.22;686450;28;2196;-64
2023/07/15 00:55:11;;;;;;;4.00;2.17;;;;;;;21.19;100.00;99832.47;686587;28;888;-64
2023/07/15 00:55:31;;;;;;;3.92;2.10;;;;;;;21.20;100.00;99831.50;683346;28;1356;-64
2023/07/15 00:55:52;;;;;;;4.27;2.17;;;;;;;21.15;100.00;99831.78;684081;28;1602;-64
2023/07/15 00:56:13;;;;;;;4.78;2.05;;;;;;;21.13;100.00;99831.03;684424;28;1454;-64
2023/07/15 00:56:35;;;;;;;4.32;1.95;;;;;;;21.14;100.00;99830.06;685964;28;1090;-63
2023/07/15 00:57:00;;;;;;;4.93;2.00;;;;;;;21.20;100.00;99836.84;682669;28;1553;-64
2023/07/15 00:57:21;;;;;;;3.53;2.08;;;;;;;21.24;100.00;99828.56;685066;28;4514;-64
2023/07/15 00:57:42;;;;;;;3.22;2.00;;;;;;;21.22;100.00;99829.59;684811;28;1202;-64
2023/07/15 00:58:03;;;;;;;3.25;1.80;;;;;;;21.21;100.00;99830.53;684532;28;1569;-64
2023/07/15 00:58:23;;;;;;;3.95;2.10;;;;;;;21.15;100.00;99829.13;687515;28;2012;-64
2023/07/15 00:58:44;;;;;;;3.67;2.17;;;;;;;21.12;100.00;99826.66;685303;28;1887;-63
2023/07/15 00:59:06;;;;;;;3.65;2.10;;;;;;;21.16;100.00;99827.34;684223;28;1573;-63
2023/07/15 00:59:28;;;;;;;3.15;2.00;;;;;;;21.12;100.00;99829.31;681886;28;2106;-64
2023/07/15 00:59:52;;;;;;;3.40;1.90;;;;;;;21.13;100.00;99831.03;680118;28;1546;-62
2023/07/15 01:00:13;;;;;;;3.30;1.85;;;;;;;21.15;100.00;99823.81;680274;28;4549;-63
2023/07/15 01:00:33;;;;;;;4.20;1.90;;;;;;;21.24;100.00;99819.75;683726;28;814;-64
2023/07/15 01:00:54;;;;;;;4.40;1.90;;;;;;;21.19;100.00;99819.16;684279;28;1426;-64
2023/07/15 01:01:14;;;;;;;3.30;1.90;;;;;;;21.19;100.00;99827.13;688574;28;1639;-64
2023/07/15 01:01:36;;;;;;;3.47;1.90;;;;;;;21.17;100.00;99829.03;690798;28;991;-64
2023/07/15 01:01:59;;;;;;;3.78;2.05;;;;;;;21.11;100.00;99822.28;688842;28;1579;-64
2023/07/15 01:02:20;;;;;;;4.25;2.60;;;;;;;21.11;100.00;99824.09;690264;28;1246;-64
2023/07/15 01:02:42;;;;;;;4.70;2.30;;;;;;;21.10;100.00;99820.59;690674;28;1445;-64
2023/07/15 01:03:03;;;;;;;4.55;2.20;;;;;;;21.11;100.00;99826.75;688837;28;1520;-64
2023/07/15 01:03:23;;;;;;;3.63;2.08;;;;;;;21.09;100.00;99821.53;689774;28;4342;-63
2023/07/15 01:03:45;;;;;;;3.37;2.07;;;;;;;21.06;100.00;99827.91;690370;28;1543;-64
2023/07/15 01:04:05;;;;;;;3.42;2.22;;;;;;;21.03;100.00;99822.78;687524;28;1035;-64
2023/07/15 01:04:26;;;;;;;3.50;2.08;;;;;;;21.03;100.00;99825.44;685739;28;1409;-64
2023/07/15 01:04:47;;;;;;;3.95;2.05;;;;;;;21.14;100.00;99822.09;685955;28;1520;-63
2023/07/15 01:05:09;;;;;;;3.47;2.10;;;;;;;21.21;100.00;99822.56;686864;28;1078;-64
2023/07/15 01:05:31;;;;;;;3.67;2.00;;;;;;;21.23;100.00;99821.53;687494;28;976;-63
2023/07/15 01:05:52;;;;;;;3.95;2.20;;;;;;;21.19;100.00;99819.16;688326;28;1245;-64
2023/07/15 01:06:13;;;;;;;3.33;2.03;;;;;;;21.15;100.00;99821.16;689918;28;4285;-63
2023/07/15 01:06:35;;;;;;;2.92;1.90;;;;;;;21.13;100.00;99824.84;690354;28;1808;-63
2023/07/15 01:06:56;;;;;;;4.10;2.20;;;;;;;21.09;100.00;99822.38;688985;28;1456;-64
2023/07/15 01:07:17;;;;;;;4.13;2.25;;;;;;;21.11;100.00;99821.44;690343;28;936;-64
2023/07/15 01:07:37;;;;;;;4.20;2.40;;;;;;;21.11;100.00;99826.75;689851;28;1485;-63
2023/07/15 01:07:58;;;;;;;3.90;2.40;;;;;;;21.10;100.00;99820.59;689118;28;1455;-64
2023/07/15 01:08:18;;;;;;;3.77;2.20;;;;;;;21.07;100.00;99821.66;690068;28;904;-64
2023/07/15 01:08:39;;;;;;;4.07;2.10;;;;;;;21.08;100.00;99817.16;690544;28;1448;-64
2023/07/15 01:09:00;;;;;;;4.35;2.10;;;;;;;21.07;100.00;99824.31;686689;28;1472;-64
2023/07/15 01:09:23;;;;;;;4.68;2.10;;;;;;;21.04;100.00;99819.16;686310;28;4348;-64
2023/07/15 01:09:44;;;;;;;4.43;2.20;;;;;;;21.03;100.00;99825.44;686627;28;2116;-64
2023/07/15 01:10:05;;;;;;;3.70;2.03;;;;;;;21.03;100.00;99824.56;682471;28;1579;-64
2023/07/15 01:10:25;;;;;;;3.30;2.05;;;;;;;21.03;100.00;99820.13;684897;28;1354;-64
2023/07/15 01:10:45;;;;;;;4.13;2.00;;;;;;;21.03;100.00;99820.13;686606;28;1437;-64
2023/07/15 01:11:06;;;;;;;3.95;2.03;;;;;;;21.03;100.00;99820.13;690243;28;774;-64
2023/07/15 01:11:29;;;;;;;3.35;2.10;;;;;;;21.07;100.00;99823.44;688651;28;869;-64
2023/07/15 01:11:50;;;;;;;3.67;2.08;;;;;;;21.05;100.00;99823.53;686530;28;1968;-64
2023/07/15 01:12:12;;;;;;;4.60;2.00;;;;;;;21.05;100.00;99822.69;684634;28;4281;-63
2023/07/15 01:12:32;;;;;;;3.58;2.10;;;;;;;21.11;100.00;99821.44;684611;28;1043;-64
2023/07/15 01:12:53;;;;;;;4.97;2.13;;;;;;;21.16;100.00;99817.56;685158;28;1460;-64
2023/07/15 01:13:13;;;;;;;4.70;2.00;;;;;;;21.15;100.00;99817.66;686194;28;1667;-64
2023/07/15 01:13:34;;;;;;;3.72;2.05;;;;;;;21.13;100.00;99816.88;685234;28;1287;-64
2023/07/15 01:13:55;;;;;;;3.33;2.22;;;;;;;21.13;100.00;99822.19;687078;28;1563;-64
2023/07/15 01:14:15;;;;;;;3.40;2.00;;;;;;;21.11;100.00;99824.09;684937;28;908;-64
2023/07/15 01:14:37;;;;;;;3.67;2.03;;;;;;;21.12;100.00;99823.16;684716;28;965;-63
2023/07/15 01:14:57;;;;;;;3.55;2.10;;;;;;;21.09;100.00;99817.06;685545;28;1450;-64
2023/07/15 01:15:18;;;;;;;3.70;2.10;;;;;;;21.05;100.00;99817.38;687232;28;4442;-64
2023/07/15 01:15:39;;;;;;;3.83;2.00;;;;;;;21.04;100.00;99820.97;686704;28;1869;-63
2023/07/15 01:16:00;;;;;;;3.90;2.30;;;;;;;21.04;100.00;99810.34;687335;28;1579;-63
2023/07/15 01:16:23;;;;;;;3.33;2.00;;;;;;;21.02;100.00;99813.09;688463;28;881;-63
2023/07/15 01:16:47;;;;;;;3.13;1.90;;;;;;;21.00;100.00;99816.78;689046;28;809;-64
2023/07/15 01:17:07;;;;;;;4.03;2.03;;;;;;;20.96;100.00;99813.47;688796;28;1684;-64
2023/07/15 01:17:28;;;;;;;4.03;2.07;;;;;;;20.91;100.00;99811.09;687431;28;1914;-64
2023/07/15 01:17:48;;;;;;;3.45;2.10;;;;;;;20.98;100.00;99821.38;686393;28;1700;-64
2023/07/15 01:18:09;;;;;;;2.93;1.80;;;;;;;20.99;100.00;99815.06;685622;28;4414;-63
2023/07/15 01:18:30;;;;;;;3.40;1.90;;;;;;;20.96;100.00;99818.78;688083;28;893;-64
2023/07/15 01:18:52;;;;;;;5.03;1.95;;;;;;;20.94;100.00;99811.88;689194;28;1507;-64
2023/07/15 01:19:18;;;;;;;5.63;2.27;;;;;;;20.91;100.00;99818.22;686965;28;1117;-64
2023/07/15 01:19:39;;;;;;;4.38;2.30;;;;;;;20.86;100.00;99818.47;688512;28;842;-64
2023/07/15 01:19:59;;;;;;;3.85;2.20;;;;;;;20.86;100.00;99813.16;687558;28;1475;-63
2023/07/15 01:20:22;;;;;;;3.87;2.03;;;;;;;20.86;100.00;99815.81;685823;28;1567;-63
2023/07/15 01:20:42;;;;;;;3.30;1.90;;;;;;;20.86;100.00;99815.00;687422;28;1457;-64
2023/07/15 01:21:03;;;;;;;3.50;2.00;;;;;;;20.83;100.00;99816.03;687389;28;1568;-64
2023/07/15 01:21:29;;;;;;;3.35;1.83;;;;;;;20.81;100.00;99815.28;686207;28;4410;-65
2023/07/15 01:21:50;;;;;;;3.50;2.00;;;;;;;20.80;100.00;99818.03;686631;28;1569;-63
2023/07/15 01:22:11;;;;;;;3.90;1.95;;;;;;;20.81;100.00;99812.63;686116;28;928;-64
2023/07/15 01:22:36;;;;;;;3.58;2.00;;;;;;;20.80;100.00;99820.69;687111;28;1654;-64
2023/07/15 01:22:56;;;;;;;4.07;2.03;;;;;;;20.79;100.00;99816.31;686247;28;1587;-64
2023/07/15 01:23:18;;;;;;;3.67;2.00;;;;;;;20.80;100.00;99818.03;685919;28;1511;-64
2023/07/15 01:23:38;;;;;;;3.77;2.10;;;;;;;20.85;100.00;99815.94;685250;28;1169;-64
2023/07/15 01:23:59;;;;;;;3.47;2.10;;;;;;;20.85;100.00;99811.50;684347;28;1468;-64
2023/07/15 01:24:22;;;;;;;3.70;2.10;;;;;;;20.85;100.00;99807.97;682558;28;4617;-63
2023/07/15 01:24:42;;;;;;;3.35;1.90;;;;;;;20.84;100.00;99815.09;685307;28;830;-64
2023/07/15 01:25:05;;;;;;;3.47;1.90;;;;;;;20.87;100.00;99814.03;683857;28;1478;-64
2023/07/15 01:25:25;;;;;;;3.13;2.00;;;;;;;20.92;100.00;99811.94;685366;28;972;-63
2023/07/15 01:25:46;;;;;;;3.85;2.10;;;;;;;20.92;100.00;99812.81;686365;28;1501;-63
2023/07/15 01:26:06;;;;;;;4.80;2.30;;;;;;;21.00;100.00;99814.97;685929;28;1296;-63
2023/07/15 01:26:26;;;;;;;3.37;1.87;;;;;;;20.98;100.00;99811.56;684881;28;1243;-63
2023/07/15 01:26:49;;;;;;;3.03;1.83;;;;;;;20.97;100.00;99815.19;680941;28;1636;-64
2023/07/15 01:27:10;;;;;;;4.35;2.17;;;;;;;20.94;100.00;99810.06;683350;28;4478;-64
2023/07/15 01:27:30;;;;;;;3.05;1.88;;;;;;;20.88;100.00;99808.63;684856;28;909;-64
2023/07/15 01:27:50;;;;;;;3.37;1.97;;;;;;;20.85;100.00;99807.97;683876;28;3869;-64
2023/07/15 01:28:11;;;;;;;3.97;2.13;;;;;;;20.83;100.00;99807.22;686655;28;1225;-64
2023/07/15 01:28:31;;;;;;;4.30;2.20;;;;;;;20.82;100.00;99810.81;690177;28;785;-64
2023/07/15 01:28:52;;;;;;;4.17;2.10;;;;;;;20.81;100.00;99806.44;688701;28;1499;-63
2023/07/15 01:29:16;;;;;;;3.33;1.93;;;;;;;20.79;100.00;99808.34;687345;28;1188;-64
2023/07/15 01:29:37;;;;;;;3.45;1.98;;;;;;;20.82;100.00;99806.34;688496;28;1017;-64
2023/07/15 01:29:57;;;;;;;4.32;2.08;;;;;;;20.80;100.00;99807.41;689184;28;1553;-65
2023/07/15 01:30:18;;;;;;;3.30;1.97;;;;;;;20.75;100.00;99811.19;689571;28;4378;-64
2023/07/15 01:30:38;;;;;;;4.90;2.47;;;;;;;20.74;100.00;99811.25;690271;28;983;-63
2023/07/15 01:30:59;;;;;;;5.47;2.55;;;;;;;20.70;100.00;99807.09;688983;28;1463;-63
2023/07/15 01:31:19;;;;;;;3.03;1.90;;;;;;;20.68;100.00;99809.00;691072;28;1322;-64
2023/07/15 01:31:43;;;;;;;3.60;2.03;;;;;;;20.69;100.00;99811.56;691565;28;777;-64
2023/07/15 01:32:04;;;;;;;3.75;1.92;;;;;;;20.69;100.00;99816.03;691206;28;1458;-64
2023/07/15 01:32:24;;;;;;;3.50;2.00;;;;;;;20.68;100.00;99809.84;690386;28;1268;-64
2023/07/15 01:32:45;;;;;;;3.47;2.10;;;;;;;20.67;100.00;99810.78;689881;28;1480;-64
2023/07/15 01:33:05;;;;;;;3.57;2.00;;;;;;;20.68;100.00;99809.00;686766;28;1481;-64
2023/07/15 01:33:25;;;;;;;3.60;1.90;;;;;;;20.69;100.00;99808.91;686736;28;4387;-63
2023/07/15 01:33:47;;;;;;;3.28;1.90;;;;;;;20.74;100.00;99809.47;687599;28;1421;-64
2023/07/15 01:34:08;;;;;;;4.25;2.05;;;;;;;20.80;100.00;99802.09;687121;28;1405;-64
2023/07/15 01:34:30;;;;;;;4.00;2.08;;;;;;;20.79;100.00;99816.31;684856;28;1462;-64
2023/07/15 01:34:51;;;;;;;3.28;1.90;;;;;;;20.83;100.00;99802.75;684764;28;1578;-64
2023/07/15 01:35:12;;;;;;;3.40;1.90;;;;;;;20.88;100.00;99805.13;688483;28;5231;-63
2023/07/15 01:35:32;;;;;;;3.63;2.13;;;;;;;20.89;100.00;99801.50;688885;28;1421;-63
2023/07/15 01:35:53;;;;;;;3.33;2.03;;;;;;;20.92;100.00;99802.19;684773;28;1417;-64
2023/07/15 01:36:14;;;;;;;4.18;2.30;;;;;;;20.89;100.00;99801.50;687510;28;4405;-62
2023/07/15 01:36:34;;;;;;;4.53;2.30;;;;;;;20.86;100.00;99812.34;688681;28;1357;-63
2023/07/15 01:36:56;;;;;;;3.58;1.95;;;;;;;20.84;100.00;99804.47;683450;28;1608;-63
2023/07/15 01:37:16;;;;;;;4.25;1.90;;;;;;;20.83;100.00;99805.41;684014;28;1485;-63
2023/07/15 01:37:36;;;;;;;3.50;1.87;;;;;;;20.82;100.00;99806.34;683927;28;1973;-64
2023/07/15 01:37:57;;;;;;;3.80;2.00;;;;;;;20.81;100.00;99799.34;685722;28;1421;-63
2023/07/15 01:38:18;;;;;;;3.83;2.00;;;;;;;20.79;100.00;99803.88;686279;28;884;-63
2023/07/15 01:38:40;;;;;;;4.10;2.00;;;;;;;20.76;100.00;99804.06;684719;28;1643;-63
2023/07/15 01:39:03;;;;;;;3.95;2.03;;;;;;;20.79;100.00;99811.00;686675;28;1690;-63
2023/07/15 01:39:24;;;;;;;3.58;1.90;;;;;;;20.86;100.00;99805.19;684505;28;4519;-63
2023/07/15 01:39:47;;;;;;;3.80;2.00;;;;;;;20.87;100.00;99806.91;684597;28;1765;-63
2023/07/15 01:40:09;;;;;;;3.50;2.10;;;;;;;20.86;100.00;99804.34;685128;28;1430;-63
2023/07/15 01:40:30;;;;;;;3.50;1.95;;;;;;;20.97;100.00;99801.91;685103;28;1537;-63
2023/07/15 01:40:52;;;;;;;3.28;1.92;;;;;;;20.97;100.00;99804.56;681015;28;1560;-64
2023/07/15 01:41:12;;;;;;;4.00;2.07;;;;;;;20.94;100.00;99803.91;681087;28;1516;-63
2023/07/15 01:41:34;;;;;;;3.33;1.95;;;;;;;20.91;100.00;99799.63;685101;28;1434;-62
2023/07/15 01:41:55;;;;;;;3.20;1.98;;;;;;;20.90;100.00;99805.88;685941;28;1473;-63
2023/07/15 01:42:16;;;;;;;3.88;2.20;;;;;;;20.87;100.00;99803.41;682248;28;4382;-64
2023/07/15 01:42:36;;;;;;;4.87;2.17;;;;;;;20.87;100.00;99806.06;684804;28;1481;-63
2023/07/15 01:42:56;;;;;;;4.50;2.17;;;;;;;20.88;100.00;99805.97;683848;28;1774;-63
2023/07/15 01:43:17;;;;;;;3.70;1.90;;;;;;;20.87;100.00;99801.59;687759;28;1583;-63
2023/07/15 01:43:38;;;;;;;3.67;2.00;;;;;;;20.87;100.00;99806.06;687710;28;3764;-63
2023/07/15 01:43:58;;;;;;;3.03;1.92;;;;;;;20.87;100.00;99798.94;686238;28;1560;-63
2023/07/15 01:44:23;;;;;;;3.75;1.92;;;;;;;21.01;100.00;99797.25;690236;28;1744;-63
2023/07/15 01:44:44;;;;;;;4.10;2.03;;;;;;;20.99;100.00;99802.66;687613;28;1508;-63
2023/07/15 01:45:10;;;;;;;3.45;1.80;;;;;;;20.97;100.00;99803.72;686136;28;1599;-63
2023/07/15 01:45:31;;;;;;;4.65;2.30;;;;;;;20.99;100.00;99801.78;687028;28;4953;-64
2023/07/15 01:45:52;;;;;;;5.15;2.40;;;;;;;21.04;100.00;99800.56;689299;28;1508;-64